Time;durP1;ratioP1;P1;durP2;ratioP2;P2;SDS_P1;SDS_P2;PMS_P1;PMS_P2;Temp;Humidity;BMP_temperature;BMP_pressure;BME280_temperature;BME280_humidity;BME280_pressure;Samples;Min_cycle;Max_cycle;Signal;HPM_P1;HPM_P2
2021/01/23 00:00:08;;;;;;;17.20;16.00;;;16.50;99.90;;;;;;5122968;28;20055;-85
2021/01/23 00:02:38;;;;;;;14.02;12.85;;;16.50;99.90;;;;;;5121486;28;20036;-85
2021/01/23 00:05:07;;;;;;;14.10;12.98;;;16.50;99.90;;;;;;5124920;28;20032;-85
2021/01/23 00:07:35;;;;;;;13.65;12.73;;;16.50;99.90;;;;;;5123724;28;20455;-85
2021/01/23 00:10:05;;;;;;;12.75;11.70;;;16.50;99.90;;;;;;5122333;28;20060;-85
2021/01/23 00:12:33;;;;;;;13.05;12.07;;;16.50;99.90;;;;;;5124018;28;20402;-84
2021/01/23 00:15:01;;;;;;;13.98;13.00;;;16.50;99.90;;;;;;5123842;28;20027;-85
2021/01/23 00:17:29;;;;;;;13.80;13.00;;;16.50;99.90;;;;;;5122525;28;20343;-85
2021/01/23 00:19:58;;;;;;;13.98;13.13;;;16.50;99.90;;;;;;5120231;28;20032;-84
2021/01/23 00:22:25;;;;;;;14.43;13.30;;;16.50;99.90;;;;;;5121326;28;20078;-85
2021/01/23 00:24:54;;;;;;;14.25;13.38;;;16.50;99.90;;;;;;5124846;28;20467;-85
2021/01/23 00:27:22;;;;;;;13.98;13.02;;;16.50;99.90;;;;;;5124350;28;20051;-85
2021/01/23 00:29:50;;;;;;;14.55;13.45;;;16.50;99.90;;;;;;5118449;28;20075;-85
2021/01/23 00:32:18;;;;;;;15.25;13.80;;;16.50;99.90;;;;;;5121113;28;20089;-85
2021/01/23 00:34:46;;;;;;;15.55;14.25;;;16.60;99.90;;;;;;5121426;28;20035;-84
2021/01/23 00:37:14;;;;;;;16.58;15.18;;;16.60;99.90;;;;;;5105274;28;20032;-85
2021/01/23 00:39:42;;;;;;;17.15;14.85;;;16.60;99.90;;;;;;5124448;28;20400;-85
2021/01/23 00:42:10;;;;;;;36.08;16.37;;;16.60;99.90;;;;;;5125601;28;20032;-84
2021/01/23 00:44:38;;;;;;;53.87;18.83;;;16.60;99.90;;;;;;5124462;28;20038;-85
2021/01/23 00:47:07;;;;;;;18.70;17.02;;;16.60;99.90;;;;;;5126070;28;20042;-85
2021/01/23 00:49:35;;;;;;;18.12;16.42;;;16.60;99.90;;;;;;5124884;28;20063;-85
2021/01/23 00:52:04;;;;;;;17.70;16.30;;;16.60;99.90;;;;;;5120825;28;20035;-85
2021/01/23 00:54:32;;;;;;;16.40;15.23;;;16.60;99.90;;;;;;5124230;28;20028;-86
2021/01/23 00:57:01;;;;;;;14.52;13.55;;;16.50;99.90;;;;;;5125149;28;20047;-85
2021/01/23 00:59:29;;;;;;;13.82;12.73;;;16.50;99.90;;;;;;5122632;28;20434;-85
2021/01/23 01:01:57;;;;;;;14.73;13.57;;;16.50;99.90;;;;;;5105738;28;20380;-85
2021/01/23 01:04:26;;;;;;;14.77;13.75;;;16.40;99.90;;;;;;5123167;28;20454;-85
2021/01/23 01:06:54;;;;;;;14.43;13.43;;;16.40;99.90;;;;;;5125118;28;20042;-85
2021/01/23 01:09:22;;;;;;;13.30;12.40;;;16.40;99.90;;;;;;5125339;28;20035;-86
2021/01/23 01:11:50;;;;;;;13.23;12.43;;;16.40;99.90;;;;;;5124974;28;20031;-85
2021/01/23 01:14:18;;;;;;;13.10;12.20;;;16.40;99.90;;;;;;5125937;28;20095;-85
2021/01/23 01:16:46;;;;;;;13.00;12.20;;;16.40;99.90;;;;;;5124730;28;20275;-85
2021/01/23 01:19:15;;;;;;;13.77;12.70;;;16.40;99.90;;;;;;5125297;28;20052;-85
2021/01/23 01:21:43;;;;;;;13.43;12.50;;;16.40;99.90;;;;;;5126274;28;20336;-85
2021/01/23 01:24:11;;;;;;;12.98;12.15;;;16.40;99.90;;;;;;5127484;28;20058;-86
2021/01/23 01:26:39;;;;;;;13.25;12.35;;;16.40;99.90;;;;;;5127233;28;20028;-86
2021/01/23 01:29:07;;;;;;;13.75;12.85;;;16.40;99.90;;;;;;5126451;28;20372;-85
2021/01/23 01:31:35;;;;;;;13.68;12.68;;;16.40;99.90;;;;;;5126924;28;20071;-85
2021/01/23 01:34:04;;;;;;;13.25;12.45;;;16.40;99.90;;;;;;5124997;28;20047;-85
2021/01/23 01:36:32;;;;;;;13.50;12.60;;;16.30;99.90;;;;;;5126845;28;20043;-85
2021/01/23 01:39:00;;;;;;;12.82;12.00;;;16.20;99.90;;;;;;5127040;28;20032;-85
2021/01/23 01:41:28;;;;;;;13.10;12.35;;;16.20;99.90;;;;;;5124067;28;20036;-85
2021/01/23 01:43:56;;;;;;;13.27;12.48;;;16.20;99.90;;;;;;5126640;28;20040;-85
2021/01/23 01:46:25;;;;;;;12.75;12.00;;;16.30;99.90;;;;;;5125967;28;20555;-85
2021/01/23 01:48:53;;;;;;;12.70;11.90;;;16.30;99.90;;;;;;5126694;28;20024;-85
2021/01/23 01:51:21;;;;;;;12.98;12.13;;;16.30;99.90;;;;;;5125266;28;20020;-86
2021/01/23 01:53:52;;;;;;;13.93;12.70;;;16.30;99.90;;;;;;5126743;28;20016;-85
2021/01/23 01:56:20;;;;;;;13.30;12.40;;;16.40;99.90;;;;;;5127730;28;20032;-85
2021/01/23 01:58:48;;;;;;;13.65;12.63;;;16.30;99.90;;;;;;5126764;28;20112;-85
2021/01/23 02:01:17;;;;;;;13.40;12.30;;;16.30;99.90;;;;;;5125564;28;20316;-85
2021/01/23 02:04:12;;;;;;;13.10;12.30;;;16.30;99.90;;;;;;5125834;28;20636;-85
2021/01/23 02:07:03;;;;;;;13.57;12.40;;;16.20;99.90;;;;;;5126339;28;20024;-85
2021/01/23 02:10:05;;;;;;;12.90;12.10;;;16.30;99.90;;;;;;5126640;28;20115;-86
2021/01/23 02:13:18;;;;;;;13.30;12.40;;;16.20;99.90;;;;;;5125966;28;20036;-85
2021/01/23 02:16:16;;;;;;;13.18;12.30;;;16.20;99.90;;;;;;5112193;28;20029;-85
2021/01/23 02:19:22;;;;;;;13.15;12.20;;;16.20;99.90;;;;;;5128815;28;20024;-85
2021/01/23 02:21:58;;;;;;;13.27;12.32;;;16.30;99.90;;;;;;5126220;28;20132;-84
2021/01/23 02:24:29;;;;;;;14.30;12.93;;;16.30;99.90;;;;;;5127096;28;20407;-85
2021/01/23 02:26:58;;;;;;;13.75;12.75;;;16.30;99.90;;;;;;5127228;28;20028;-85
2021/01/23 02:29:48;;;;;;;13.52;12.57;;;16.30;99.90;;;;;;5126479;28;20029;-85
2021/01/23 02:32:20;;;;;;;14.38;13.25;;;16.20;99.90;;;;;;5126108;28;20028;-85
2021/01/23 02:34:49;;;;;;;14.43;13.32;;;16.20;99.90;;;;;;5125449;28;20039;-85
2021/01/23 02:37:18;;;;;;;13.62;12.77;;;16.20;99.90;;;;;;5125260;28;20043;-85
2021/01/23 02:39:46;;;;;;;13.65;12.75;;;16.20;99.90;;;;;;5126275;28;20068;-85
2021/01/23 02:42:14;;;;;;;14.13;13.10;;;16.20;99.90;;;;;;5125231;28;20040;-85
2021/01/23 02:44:42;;;;;;;14.43;13.25;;;16.10;99.90;;;;;;5124609;28;20043;-85
2021/01/23 02:47:10;;;;;;;16.23;13.20;;;16.10;99.90;;;;;;5125808;28;20036;-85
2021/01/23 02:49:38;;;;;;;14.35;13.20;;;16.10;99.90;;;;;;5126358;28;20032;-85
2021/01/23 02:52:18;;;;;;;14.13;12.90;;;16.10;99.90;;;;;;5125922;28;20024;-85
2021/01/23 02:55:02;;;;;;;13.45;12.63;;;16.00;99.90;;;;;;5126927;28;20043;-85
2021/01/23 02:57:32;;;;;;;13.48;12.50;;;16.00;99.90;;;;;;5126853;28;20047;-86
2021/01/23 03:00:07;;;;;;;13.52;12.57;;;15.90;99.90;;;;;;5127572;28;20050;-85
2021/01/23 03:02:41;;;;;;;13.27;12.48;;;16.00;99.90;;;;;;5125448;28;20554;-84
2021/01/23 03:05:12;;;;;;;13.00;12.20;;;15.90;99.90;;;;;;5129728;28;20024;-85
2021/01/23 03:07:42;;;;;;;12.85;11.95;;;16.00;99.90;;;;;;5127273;28;20039;-85
2021/01/23 12:16:27;;;;;;;6.00;1.90;;;27.30;64.60;;;;;;5157560;27;20077;-83
2021/01/23 12:18:56;;;;;;;5.95;2.10;;;24.10;71.70;;;;;;5168693;27;20058;-83
2021/01/23 12:21:25;;;;;;;8.27;2.33;;;26.20;67.70;;;;;;5167996;27;20055;-84
2021/01/23 12:23:53;;;;;;;7.57;2.08;;;26.00;65.30;;;;;;5148618;27;20027;-83
2021/01/23 12:26:21;;;;;;;7.97;2.28;;;26.80;63.50;;;;;;5150194;27;20019;-84
2021/01/23 12:28:50;;;;;;;9.43;2.17;;;26.70;62.40;;;;;;5167852;27;20375;-83
2021/01/23 12:31:18;;;;;;;6.22;2.20;;;26.00;64.70;;;;;;5167737;27;20062;-83
2021/01/23 12:33:48;;;;;;;7.55;2.20;;;26.20;62.60;;;;;;5169045;27;20028;-83
2021/01/23 12:36:16;;;;;;;9.00;2.17;;;26.50;62.00;;;;;;5165426;27;20031;-83
2021/01/23 12:38:44;;;;;;;9.35;2.30;;;26.60;60.60;;;;;;5166866;27;20069;-83
2021/01/23 12:41:12;;;;;;;7.95;2.28;;;26.70;60.60;;;;;;5166787;27;20039;-83
2021/01/23 12:43:41;;;;;;;7.87;2.20;;;26.50;59.90;;;;;;5167870;27;20403;-83
2021/01/23 12:46:09;;;;;;;6.53;2.17;;;25.60;62.90;;;;;;5167306;27;20027;-83
2021/01/23 12:48:37;;;;;;;5.50;1.83;;;25.70;63.30;;;;;;5167453;27;20028;-83
2021/01/23 12:51:05;;;;;;;7.05;1.92;;;25.30;64.30;;;;;;5168722;27;20033;-83
2021/01/23 12:53:33;;;;;;;5.40;1.80;;;25.20;66.30;;;;;;5166863;27;20035;-85
2021/01/23 12:56:01;;;;;;;9.23;1.83;;;23.70;69.70;;;;;;5149590;27;20066;-85
2021/01/23 12:58:30;;;;;;;6.85;1.87;;;23.30;71.70;;;;;;5168310;27;20071;-85
2021/01/23 13:00:58;;;;;;;9.20;2.17;;;22.40;76.50;;;;;;5166958;27;20035;-86
2021/01/23 13:03:27;;;;;;;7.65;2.05;;;23.00;77.00;;;;;;5168170;27;20032;-86
2021/01/23 13:05:55;;;;;;;6.90;1.75;;;23.00;74.70;;;;;;5166601;27;20027;-85
2021/01/23 13:08:23;;;;;;;10.00;2.20;;;22.00;77.50;;;;;;5167341;27;20485;-85
2021/01/23 13:10:52;;;;;;;5.15;1.70;;;22.50;78.00;;;;;;5169253;27;20063;-86
2021/01/23 13:13:21;;;;;;;5.72;1.90;;;22.00;81.20;;;;;;5169719;27;20215;-85
2021/01/23 13:15:49;;;;;;;9.90;2.00;;;21.20;82.60;;;;;;5167877;27;20456;-84
2021/01/23 13:18:17;;;;;;;9.65;2.25;;;21.10;86.10;;;;;;5168412;27;20078;-85
2021/01/23 13:20:45;;;;;;;12.05;1.98;;;21.40;86.00;;;;;;5142487;27;20031;-86
2021/01/23 13:23:13;;;;;;;11.15;2.20;;;21.70;85.60;;;;;;5167025;27;20092;-85
2021/01/23 13:25:41;;;;;;;9.40;2.20;;;22.20;83.00;;;;;;5168948;27;20047;-85
2021/01/23 13:28:09;;;;;;;7.35;2.17;;;21.30;83.50;;;;;;5166666;27;20035;-85
2021/01/23 13:30:37;;;;;;;7.93;2.10;;;21.10;84.80;;;;;;5145776;27;20042;-86
2021/01/23 13:33:05;;;;;;;6.57;1.80;;;21.10;86.20;;;;;;5166073;27;20434;-85
2021/01/23 13:35:34;;;;;;;13.65;2.60;;;21.00;87.40;;;;;;5167638;27;20031;-86
2021/01/23 13:38:02;;;;;;;6.20;1.60;;;20.90;87.10;;;;;;5164444;27;20093;-86
2021/01/23 13:40:30;;;;;;;7.47;1.67;;;20.70;88.10;;;;;;5165726;27;20063;-86
2021/01/23 13:42:59;;;;;;;6.93;1.90;;;20.70;88.80;;;;;;5168016;27;20491;-85
2021/01/23 13:45:30;;;;;;;13.25;2.28;;;20.80;88.80;;;;;;5166304;27;20028;-86
2021/01/23 13:47:59;;;;;;;8.50;1.95;;;21.10;89.10;;;;;;5166027;27;20023;-86
2021/01/23 13:50:27;;;;;;;13.65;2.10;;;21.10;88.00;;;;;;5164420;27;20080;-86
2021/01/23 13:52:55;;;;;;;8.20;1.92;;;21.00;86.10;;;;;;5149373;27;20521;-86
2021/01/23 13:55:23;;;;;;;11.15;2.60;;;20.70;86.60;;;;;;5167985;27;20035;-86
2021/01/23 13:57:51;;;;;;;8.70;1.65;;;20.50;89.10;;;;;;5168273;27;20066;-86
2021/01/23 14:00:20;;;;;;;6.72;1.67;;;20.40;90.20;;;;;;5165971;27;20054;-86
2021/01/23 14:02:48;;;;;;;9.98;1.92;;;20.20;90.20;;;;;;5168925;27;20028;-86
2021/01/23 14:05:17;;;;;;;14.68;2.35;;;20.40;90.90;;;;;;5169090;27;20031;-86
2021/01/23 14:07:45;;;;;;;7.32;1.60;;;20.70;90.10;;;;;;5166891;27;20062;-86
2021/01/23 14:10:25;;;;;;;8.35;1.83;;;20.10;90.70;;;;;;5165126;27;20430;-86
2021/01/23 14:12:53;;;;;;;12.55;2.12;;;20.30;91.50;;;;;;5148912;27;20455;-86
2021/01/23 14:15:21;;;;;;;9.43;2.20;;;20.20;91.60;;;;;;5168608;27;20438;-85
2021/01/23 14:17:50;;;;;;;9.70;1.92;;;20.20;91.70;;;;;;5168722;27;20495;-86
2021/01/23 14:20:22;;;;;;;13.18;1.95;;;20.20;92.00;;;;;;5164602;27;20030;-86
2021/01/23 14:22:51;;;;;;;11.12;2.10;;;20.00;92.30;;;;;;5166663;27;20222;-86
2021/01/23 14:25:19;;;;;;;8.10;1.83;;;19.70;91.60;;;;;;5166970;27;20027;-86
2021/01/23 14:27:47;;;;;;;9.82;2.20;;;19.70;92.80;;;;;;5168120;27;20067;-85
2021/01/23 14:30:15;;;;;;;9.35;2.17;;;19.50;92.90;;;;;;5168007;27;20043;-86
2021/01/23 14:32:44;;;;;;;12.68;2.25;;;19.90;93.40;;;;;;5167265;27;20049;-85
2021/01/23 14:35:12;;;;;;;9.65;2.10;;;19.80;93.10;;;;;;5168014;27;20043;-84
2021/01/23 14:37:41;;;;;;;12.90;2.03;;;19.70;93.10;;;;;;5167446;27;20032;-85
2021/01/23 14:40:12;;;;;;;12.23;1.83;;;19.80;93.30;;;;;;5165554;27;20111;-85
2021/01/23 14:42:40;;;;;;;10.32;1.90;;;19.80;92.50;;;;;;5168614;27;20086;-85
2021/01/23 14:45:10;;;;;;;11.48;1.90;;;19.60;93.30;;;;;;5166909;27;20078;-85
2021/01/23 14:47:39;;;;;;;14.65;2.35;;;19.30;93.80;;;;;;5166260;27;20031;-85
2021/01/23 14:50:07;;;;;;;9.32;2.08;;;19.50;93.80;;;;;;5164413;27;20335;-86
2021/01/23 14:52:36;;;;;;;12.52;2.15;;;19.30;94.10;;;;;;5148230;27;20038;-86
2021/01/23 14:55:05;;;;;;;13.88;2.10;;;19.50;94.40;;;;;;5170140;27;20066;-85
2021/01/23 14:57:33;;;;;;;8.82;2.10;;;19.30;93.60;;;;;;5166725;27;20409;-85
2021/01/23 15:00:01;;;;;;;11.10;1.90;;;19.20;94.40;;;;;;5165956;27;20062;-85
2021/01/23 15:02:32;;;;;;;8.35;1.98;;;19.40;94.20;;;;;;5165688;27;20051;-85
2021/01/23 15:05:00;;;;;;;6.78;1.92;;;19.30;94.00;;;;;;5169182;27;20407;-86
2021/01/23 15:07:32;;;;;;;7.68;1.75;;;19.10;94.00;;;;;;5170826;27;20047;-86
2021/01/23 15:10:00;;;;;;;10.13;1.80;;;19.00;94.60;;;;;;5166509;27;20437;-86
2021/01/23 15:12:30;;;;;;;7.22;1.50;;;19.10;95.20;;;;;;5167513;27;20051;-86
2021/01/23 15:14:59;;;;;;;12.50;2.28;;;18.90;94.50;;;;;;5168642;27;20055;-85
2021/01/23 15:17:27;;;;;;;12.68;2.47;;;19.00;94.40;;;;;;5168056;27;20399;-85
2021/01/23 15:19:55;;;;;;;14.18;2.17;;;18.90;95.10;;;;;;5168927;27;20035;-85
2021/01/23 15:22:24;;;;;;;13.82;2.42;;;18.80;95.60;;;;;;5169717;27;20432;-85
2021/01/23 15:24:51;;;;;;;9.25;2.12;;;18.70;95.90;;;;;;5149942;27;20818;-86
2021/01/23 15:27:19;;;;;;;10.15;2.17;;;18.70;95.70;;;;;;5169711;27;20027;-86
2021/01/23 15:29:48;;;;;;;8.63;1.80;;;18.70;96.00;;;;;;5170144;27;20027;-86
2021/01/23 15:32:16;;;;;;;9.10;1.90;;;18.80;95.30;;;;;;5169254;27;20246;-86
2021/01/23 15:34:44;;;;;;;11.48;1.80;;;18.80;95.30;;;;;;5168490;27;20031;-85
2021/01/23 15:37:12;;;;;;;11.15;1.73;;;18.70;94.80;;;;;;5167912;27;20119;-85
2021/01/23 15:39:40;;;;;;;12.27;1.70;;;18.70;95.40;;;;;;5149125;27;20031;-86
2021/01/23 15:42:08;;;;;;;11.02;1.77;;;18.90;95.40;;;;;;5168986;27;20393;-86
2021/01/23 15:44:36;;;;;;;11.55;2.35;;;18.70;95.30;;;;;;5167558;27;20415;-85
2021/01/23 15:47:04;;;;;;;8.02;1.90;;;18.70;95.40;;;;;;5170063;27;20457;-85
2021/01/23 15:49:33;;;;;;;11.73;1.95;;;18.80;95.20;;;;;;5148640;27;20037;-86
2021/01/23 15:52:01;;;;;;;14.30;2.35;;;18.70;95.20;;;;;;5166305;27;20058;-86
2021/01/23 15:54:29;;;;;;;10.27;2.47;;;18.80;95.50;;;;;;5167257;27;20070;-85
2021/01/23 15:57:01;;;;;;;9.82;2.28;;;18.80;95.80;;;;;;5167698;27;20519;-85
2021/01/23 15:59:29;;;;;;;10.10;3.55;;;18.60;95.80;;;;;;5164344;27;20036;-85
2021/01/23 16:01:57;;;;;;;10.05;1.95;;;18.60;96.70;;;;;;5166590;27;20423;-85
2021/01/23 16:04:26;;;;;;;9.68;2.05;;;18.80;96.60;;;;;;5159627;27;20041;-85
2021/01/23 16:06:53;;;;;;;7.87;1.80;;;18.60;95.90;;;;;;5170554;27;20027;-84
2021/01/23 16:09:21;;;;;;;11.68;2.28;;;18.60;96.20;;;;;;5168604;27;20355;-84
2021/01/23 16:11:50;;;;;;;10.88;2.22;;;18.50;96.50;;;;;;5169258;27;20035;-84
2021/01/23 16:14:18;;;;;;;12.05;2.30;;;18.40;96.50;;;;;;5167712;27;20046;-85
2021/01/23 16:16:46;;;;;;;11.07;2.10;;;18.40;96.90;;;;;;5144978;27;20039;-85
2021/01/23 16:19:14;;;;;;;12.52;3.30;;;18.40;96.80;;;;;;5164298;27;20034;-84
2021/01/23 16:21:43;;;;;;;10.70;3.28;;;18.40;97.10;;;;;;5165476;27;20402;-85
2021/01/23 16:24:11;;;;;;;12.52;3.00;;;18.30;97.10;;;;;;5168386;27;20086;-85
2021/01/23 16:26:39;;;;;;;13.13;3.47;;;18.20;97.60;;;;;;5169816;27;20028;-84
2021/01/23 16:29:07;;;;;;;8.18;1.80;;;18.10;97.60;;;;;;5131647;27;20035;-85
2021/01/23 16:31:35;;;;;;;10.38;4.70;;;18.10;98.10;;;;;;5170411;27;20035;-84
2021/01/23 16:34:04;;;;;;;11.30;2.25;;;18.00;98.50;;;;;;5150758;27;20035;-85
2021/01/23 16:36:33;;;;;;;9.13;3.00;;;17.90;98.60;;;;;;5169392;27;20328;-84
2021/01/23 16:39:01;;;;;;;12.70;2.65;;;17.90;98.90;;;;;;5168371;27;20062;-85
2021/01/23 16:41:30;;;;;;;11.57;2.45;;;17.90;99.20;;;;;;5168205;27;20032;-84
2021/01/23 16:43:59;;;;;;;9.45;2.30;;;17.90;99.00;;;;;;5167911;27;20036;-84
2021/01/23 16:46:27;;;;;;;7.05;2.30;;;17.90;99.00;;;;;;5169314;27;20066;-85
2021/01/23 16:48:56;;;;;;;9.05;1.80;;;17.90;99.50;;;;;;5168829;27;20032;-85
2021/01/23 16:51:24;;;;;;;14.05;6.40;;;17.80;99.60;;;;;;5168722;27;20023;-85
2021/01/23 16:53:52;;;;;;;13.70;2.85;;;17.80;99.80;;;;;;5168561;27;20125;-84
2021/01/23 16:56:20;;;;;;;11.88;2.00;;;17.70;99.90;;;;;;5169020;27;20031;-84
2021/01/23 16:58:49;;;;;;;14.98;9.55;;;17.70;99.90;;;;;;5168949;27;20335;-85
2021/01/23 17:01:17;;;;;;;11.52;3.42;;;17.70;99.90;;;;;;5151231;27;20131;-84
2021/01/23 17:03:46;;;;;;;17.23;3.55;;;17.70;99.90;;;;;;5151201;27;20063;-85
2021/01/23 17:06:14;;;;;;;16.37;12.55;;;17.70;99.90;;;;;;5168562;27;20050;-84
2021/01/23 17:08:41;;;;;;;21.55;13.40;;;17.60;99.90;;;;;;5149606;27;20101;-84
2021/01/23 17:11:10;;;;;;;11.73;2.25;;;17.50;99.90;;;;;;5169405;27;20031;-84
2021/01/23 17:13:38;;;;;;;12.20;2.00;;;17.50;99.90;;;;;;5169065;27;20071;-84
2021/01/23 17:16:06;;;;;;;9.90;2.28;;;17.40;99.90;;;;;;5167948;27;20035;-85
2021/01/23 17:18:35;;;;;;;12.57;2.05;;;17.40;99.90;;;;;;5170226;27;20031;-84
2021/01/23 17:21:03;;;;;;;10.30;6.62;;;17.30;99.90;;;;;;5167583;27;20027;-84
2021/01/23 17:23:31;;;;;;;12.40;4.55;;;17.30;99.90;;;;;;5169517;27;20480;-84
2021/01/23 17:26:00;;;;;;;12.35;5.78;;;17.30;99.90;;;;;;5169262;27;20089;-84
2021/01/23 17:28:28;;;;;;;14.25;3.72;;;17.20;99.90;;;;;;5171739;27;20035;-84
2021/01/23 17:30:56;;;;;;;10.38;2.55;;;17.10;99.90;;;;;;5168973;27;20035;-84
2021/01/23 17:33:25;;;;;;;9.73;3.55;;;17.10;99.90;;;;;;5169167;27;20028;-84
2021/01/23 17:35:53;;;;;;;12.55;5.93;;;17.00;99.90;;;;;;5168212;27;20426;-84
2021/01/23 17:38:21;;;;;;;25.75;18.83;;;17.00;99.90;;;;;;5171665;27;20101;-84
2021/01/23 17:40:50;;;;;;;28.45;11.55;;;17.00;99.90;;;;;;5168686;27;20031;-84
2021/01/23 17:43:18;;;;;;;11.48;8.75;;;16.90;99.90;;;;;;5169145;27;20054;-84
2021/01/23 17:45:46;;;;;;;12.63;2.37;;;16.80;99.90;;;;;;5171427;27;20028;-84
2021/01/23 17:48:14;;;;;;;14.85;2.47;;;16.80;99.90;;;;;;5149274;27;20054;-85
2021/01/23 17:50:43;;;;;;;12.52;2.22;;;16.80;99.90;;;;;;5171560;27;20459;-84
2021/01/23 17:53:12;;;;;;;12.95;3.62;;;16.70;99.90;;;;;;5169453;27;20070;-84
2021/01/23 17:55:45;;;;;;;14.43;5.37;;;16.70;99.90;;;;;;5169873;27;20098;-84
2021/01/23 17:58:13;;;;;;;12.80;2.83;;;16.70;99.90;;;;;;5168087;27;20338;-84
2021/01/23 18:00:41;;;;;;;19.33;3.92;;;16.70;99.90;;;;;;5169404;27;20102;-84
2021/01/23 18:03:10;;;;;;;12.32;5.05;;;16.70;99.90;;;;;;5150857;27;20035;-84
2021/01/23 18:05:38;;;;;;;15.05;5.15;;;16.60;99.90;;;;;;5168933;27;20024;-84
2021/01/23 18:08:06;;;;;;;18.12;11.57;;;16.60;99.90;;;;;;5168352;27;20402;-84
2021/01/23 18:10:35;;;;;;;17.98;15.75;;;16.50;99.90;;;;;;5165264;27;20453;-85
2021/01/23 18:13:03;;;;;;;21.70;19.40;;;16.50;99.90;;;;;;5166828;27;20027;-84
2021/01/23 18:15:31;;;;;;;17.77;10.38;;;16.40;99.90;;;;;;5166627;27;20438;-84
2021/01/23 18:17:59;;;;;;;14.43;9.40;;;16.40;99.90;;;;;;5167192;27;20027;-85
2021/01/23 18:20:28;;;;;;;20.27;12.48;;;16.40;99.90;;;;;;5168133;27;20362;-84
2021/01/23 18:22:56;;;;;;;15.35;8.43;;;16.30;99.90;;;;;;5166288;27;20046;-85
2021/01/23 18:25:24;;;;;;;14.82;11.80;;;16.30;99.90;;;;;;5163502;27;20315;-84
2021/01/23 18:27:52;;;;;;;17.17;10.38;;;16.20;99.90;;;;;;5164562;27;20027;-84
2021/01/23 18:30:20;;;;;;;15.45;10.98;;;16.20;99.90;;;;;;5166304;27;20083;-84
2021/01/23 18:32:48;;;;;;;12.85;10.52;;;16.10;99.90;;;;;;5165142;27;20069;-84
2021/01/23 18:35:16;;;;;;;12.68;8.82;;;16.10;99.90;;;;;;5166758;27;20027;-84
2021/01/23 18:37:46;;;;;;;17.37;11.18;;;16.10;99.90;;;;;;5163879;27;20403;-84
2021/01/23 18:40:14;;;;;;;12.13;3.60;;;16.00;99.90;;;;;;5166824;27;20066;-85
2021/01/23 18:42:43;;;;;;;18.30;13.68;;;16.00;99.90;;;;;;5165895;27;20046;-84
2021/01/23 18:45:12;;;;;;;21.35;14.15;;;16.00;99.90;;;;;;5166392;27;20028;-85
2021/01/23 18:47:41;;;;;;;21.33;19.17;;;16.00;99.90;;;;;;5165004;27;20058;-84
2021/01/23 18:50:09;;;;;;;21.15;19.12;;;16.00;99.90;;;;;;5164524;27;20028;-84
2021/01/23 18:52:38;;;;;;;23.05;16.27;;;16.00;99.90;;;;;;5166357;27;20340;-84
2021/01/23 18:55:07;;;;;;;17.85;14.07;;;16.00;99.90;;;;;;5166466;27;20035;-84
2021/01/23 18:57:37;;;;;;;20.67;18.20;;;16.00;99.90;;;;;;5166494;27;20332;-84
2021/01/23 19:00:08;;;;;;;16.23;13.40;;;16.00;99.90;;;;;;5164113;27;20081;-83
2021/01/23 19:02:37;;;;;;;17.25;11.52;;;16.00;99.90;;;;;;5167255;27;20054;-84
2021/01/23 19:05:07;;;;;;;17.60;10.25;;;16.00;99.90;;;;;;5165293;27;20446;-84
2021/01/23 19:07:36;;;;;;;19.65;9.88;;;16.00;99.90;;;;;;5166495;27;20051;-84
2021/01/23 19:10:05;;;;;;;16.90;10.00;;;16.00;99.90;;;;;;5163883;27;20054;-84
2021/01/23 19:12:33;;;;;;;13.43;10.40;;;16.00;99.90;;;;;;5165202;27;20074;-84
2021/01/23 19:15:04;;;;;;;16.37;10.85;;;16.00;99.90;;;;;;5165919;27;20062;-84
2021/01/23 19:17:33;;;;;;;12.98;9.48;;;16.00;99.90;;;;;;5167621;27;20354;-84
2021/01/23 19:20:05;;;;;;;17.15;9.85;;;16.00;99.90;;;;;;5165405;27;20082;-84
2021/01/23 19:22:33;;;;;;;15.38;11.02;;;16.00;99.90;;;;;;5165194;27;20031;-84
2021/01/23 19:25:01;;;;;;;18.48;14.50;;;16.00;99.90;;;;;;5163484;27;20040;-85
2021/01/23 19:27:30;;;;;;;16.65;10.90;;;15.90;99.90;;;;;;5163119;27;20057;-84
2021/01/23 19:29:58;;;;;;;23.42;14.70;;;15.90;99.90;;;;;;5162974;27;20071;-84
2021/01/23 19:32:27;;;;;;;15.65;13.93;;;15.90;99.90;;;;;;5164141;27;20043;-84
2021/01/23 19:34:56;;;;;;;20.42;14.80;;;15.80;99.90;;;;;;5163275;27;20039;-84
2021/01/23 19:37:24;;;;;;;18.30;12.45;;;15.90;99.90;;;;;;5167434;27;20410;-85
2021/01/23 19:39:52;;;;;;;21.70;13.20;;;15.90;99.90;;;;;;5162728;27;20420;-84
2021/01/23 19:42:20;;;;;;;18.92;11.07;;;15.90;99.90;;;;;;5165046;27;20043;-84
2021/01/23 19:44:48;;;;;;;18.48;12.13;;;15.80;99.90;;;;;;5165679;27;20481;-84
2021/01/23 19:47:16;;;;;;;13.43;10.65;;;15.80;99.90;;;;;;5167136;27;20031;-84
2021/01/23 19:49:45;;;;;;;17.60;12.52;;;15.80;99.90;;;;;;5166774;27;20036;-84
2021/01/23 19:52:13;;;;;;;19.45;13.38;;;15.80;99.90;;;;;;5165083;27;20038;-84
2021/01/23 19:54:41;;;;;;;14.45;12.05;;;15.80;99.90;;;;;;5167170;27;20055;-85
2021/01/23 19:57:10;;;;;;;18.62;12.77;;;15.80;99.90;;;;;;5166813;27;20110;-85
2021/01/23 19:59:38;;;;;;;15.25;11.52;;;15.70;99.90;;;;;;5165824;27;20031;-84
2021/01/23 20:02:06;;;;;;;15.45;9.43;;;15.70;99.90;;;;;;5165914;27;20039;-84
2021/01/23 20:04:34;;;;;;;21.77;11.52;;;15.80;99.90;;;;;;5165830;27;20054;-84
2021/01/23 20:07:02;;;;;;;17.58;10.55;;;15.70;99.90;;;;;;5164556;27;20070;-84
2021/01/23 20:09:30;;;;;;;20.50;11.38;;;15.70;99.90;;;;;;5166046;27;20035;-84
2021/01/23 20:11:59;;;;;;;19.83;11.80;;;15.70;99.90;;;;;;5165066;27;20027;-85
2021/01/23 20:14:27;;;;;;;22.00;12.63;;;15.70;99.90;;;;;;5166553;27;20067;-84
2021/01/23 20:16:55;;;;;;;17.77;11.98;;;15.70;99.90;;;;;;5162403;27;20095;-85
2021/01/23 20:19:24;;;;;;;19.17;13.02;;;15.70;99.90;;;;;;5167645;27;20035;-84
2021/01/23 20:21:52;;;;;;;18.20;12.73;;;15.70;99.90;;;;;;5167531;27;20019;-85
2021/01/23 20:24:20;;;;;;;16.85;12.65;;;15.70;99.90;;;;;;5166804;27;20097;-84
2021/01/23 20:26:49;;;;;;;20.02;12.48;;;15.70;99.90;;;;;;5145916;27;20062;-85
2021/01/23 20:29:17;;;;;;;18.55;12.57;;;15.60;99.90;;;;;;5166775;27;20051;-84
2021/01/23 20:31:45;;;;;;;14.68;13.00;;;15.60;99.90;;;;;;5150004;27;20067;-85
2021/01/23 20:34:13;;;;;;;19.85;12.73;;;15.60;99.90;;;;;;5166927;27;20624;-84
2021/01/23 20:36:42;;;;;;;15.55;11.98;;;15.60;99.90;;;;;;5166460;27;20058;-85
2021/01/23 20:39:10;;;;;;;18.87;12.70;;;15.70;99.90;;;;;;5144913;27;20023;-84
2021/01/23 20:41:44;;;;;;;21.25;12.60;;;15.70;99.90;;;;;;5162763;27;20074;-85
2021/01/23 20:44:13;;;;;;;15.57;10.05;;;15.70;99.90;;;;;;5164525;27;20024;-84
2021/01/23 20:46:41;;;;;;;17.87;9.85;;;15.60;99.90;;;;;;5165864;27;20074;-85
2021/01/23 20:49:10;;;;;;;16.62;10.30;;;15.60;99.90;;;;;;5166591;27;20112;-85
2021/01/23 20:51:37;;;;;;;17.87;11.07;;;15.60;99.90;;;;;;5165531;27;20023;-84
2021/01/23 20:54:07;;;;;;;17.10;9.75;;;15.60;99.90;;;;;;5165748;27;20027;-84
2021/01/23 20:56:35;;;;;;;17.67;12.30;;;15.50;99.90;;;;;;5166513;27;20042;-85
2021/01/23 20:59:07;;;;;;;20.52;13.20;;;15.50;99.90;;;;;;5167105;27;20042;-85
2021/01/23 21:01:35;;;;;;;22.37;13.75;;;15.50;99.90;;;;;;5166943;27;20398;-85
2021/01/23 21:04:04;;;;;;;20.15;13.23;;;15.40;99.90;;;;;;5165870;27;20062;-84
2021/01/23 21:06:33;;;;;;;19.35;16.58;;;15.40;99.90;;;;;;5166255;27;20441;-85
2021/01/23 21:09:01;;;;;;;25.23;20.70;;;15.40;99.90;;;;;;5145966;27;20403;-84
2021/01/23 21:11:29;;;;;;;20.25;13.70;;;15.40;99.90;;;;;;5147582;27;20034;-85
2021/01/23 21:13:57;;;;;;;17.83;13.10;;;15.40;99.90;;;;;;5160792;27;20459;-84
2021/01/23 21:16:25;;;;;;;20.55;13.00;;;15.40;99.90;;;;;;5163438;27;20071;-85
2021/01/23 21:18:53;;;;;;;20.23;14.40;;;15.40;99.90;;;;;;5145736;27;20402;-86
2021/01/23 21:21:21;;;;;;;16.85;13.27;;;15.40;99.90;;;;;;5165781;27;20487;-84
2021/01/23 21:23:50;;;;;;;23.23;12.60;;;15.40;99.90;;;;;;5163745;27;20403;-85
2021/01/23 21:26:18;;;;;;;17.83;9.43;;;15.40;99.90;;;;;;5163708;27;20027;-84
2021/01/23 21:28:46;;;;;;;20.05;9.10;;;15.40;99.90;;;;;;5165329;27;20031;-85
2021/01/23 21:31:14;;;;;;;13.80;7.03;;;15.40;99.90;;;;;;5166172;27;20398;-85
2021/01/23 21:33:42;;;;;;;22.37;9.50;;;15.40;99.90;;;;;;5166592;27;20082;-85
2021/01/23 21:36:11;;;;;;;17.65;12.98;;;15.40;99.90;;;;;;5164312;27;20047;-85
2021/01/23 21:38:38;;;;;;;18.95;12.00;;;15.40;99.90;;;;;;5165990;27;20043;-85
2021/01/23 21:41:07;;;;;;;21.58;13.88;;;15.40;99.90;;;;;;5165589;27;20039;-85
2021/01/23 21:43:36;;;;;;;20.35;14.20;;;15.40;99.90;;;;;;5166354;27;20023;-85
2021/01/23 21:46:04;;;;;;;17.20;11.07;;;15.40;99.90;;;;;;5164657;27;20043;-85
2021/01/23 21:48:32;;;;;;;15.25;13.65;;;15.50;99.90;;;;;;5166289;27;20059;-85